Time;durP1;ratioP1;P1;durP2;ratioP2;P2;SDS_P1;SDS_P2;PMS_P1;PMS_P2;Temp;Humidity;BMP_temperature;BMP_pressure;BME280_temperature;BME280_humidity;BME280_pressure;Samples;Min_cycle;Max_cycle;Signal;HPM_P1;HPM_P2
2019/08/28 00:01:57;;;;;;;11.5;9;;;;;;;19.22;76.9043;941.046;;;;
2019/08/28 00:04:28;;;;;;;11.5;8.9;;;;;;;19.35;76.74023;941.0322;;;;
2019/08/28 00:06:52;;;;;;;12.3;9.3;;;;;;;19.48;76.56445;941.0298;;;;
2019/08/28 00:09:23;;;;;;;11.7;9.2;;;;;;;19.53;75.84082;941.0084;;;;
2019/08/28 00:12:06;;;;;;;9.7;8.7;;;;;;;19.42;75.50586;940.9825;;;;
2019/08/28 00:14:41;;;;;;;11.7;8.9;;;;;;;19.29;75.78711;940.9581;;;;
2019/08/28 00:17:12;;;;;;;12.4;8.8;;;;;;;19.5;75.05371;940.9219;;;;
2019/08/28 00:19:48;;;;;;;11.4;8.9;;;;;;;19.63;75.25;940.8931;;;;
2019/08/28 00:22:09;;;;;;;9.6;8.6;;;;;;;19.7;75.06445;940.8674;;;;
2019/08/28 00:24:43;;;;;;;14.2;9.3;;;;;;;19.81;74.1377;940.7859;;;;
2019/08/28 00:27:16;;;;;;;12.6;8.7;;;;;;;19.84;74.76172;940.757;;;;
2019/08/28 00:29:45;;;;;;;12.1;8.6;;;;;;;19.83;73.83789;940.6984;;;;
2019/08/28 00:32:12;;;;;;;13.5;8.9;;;;;;;19.76;74.22168;940.6528;;;;
2019/08/28 00:34:58;;;;;;;11;9.2;;;;;;;19.72;73.98438;940.7214;;;;
2019/08/28 00:37:21;;;;;;;14;9.2;;;;;;;19.64;74.91309;940.657;;;;
2019/08/28 00:39:47;;;;;;;10.3;8.8;;;;;;;19.64;74.11035;940.5842;;;;
2019/08/28 00:42:12;;;;;;;12.4;9.1;;;;;;;19.47;74.09375;940.5784;;;;
2019/08/28 00:47:14;;;;;;;10.5;9.1;;;;;;;19.24;75.58008;940.5264;;;;
2019/08/28 00:49:45;;;;;;;11.6;9.1;;;;;;;19.19;75.875;940.5692;;;;
2019/08/28 00:52:12;;;;;;;12.6;9.3;;;;;;;19.15;76.36816;940.5991;;;;
2019/08/28 00:54:44;;;;;;;12.3;9.8;;;;;;;19.03;76.85938;940.5948;;;;
2019/08/28 00:57:16;;;;;;;9.9;8.9;;;;;;;18.9;77.67383;940.6019;;;;
2019/08/28 00:59:44;;;;;;;10.9;9.3;;;;;;;18.97;77.33789;940.5941;;;;
2019/08/28 01:02:15;;;;;;;13.4;9.1;;;;;;;19.1;76.84961;940.6088;;;;
2019/08/28 01:05:08;;;;;;;10.9;9.8;;;;;;;19.11;76.81543;940.5731;;;;
2019/08/28 01:07:50;;;;;;;14.6;9.9;;;;;;;18.88;77.61426;940.6418;;;;
2019/08/28 01:10:05;;;;;;;15.4;9.1;;;;;;;18.89;77.66113;940.5852;;;;
2019/08/28 01:12:29;;;;;;;10.6;9.5;;;;;;;18.92;77.42285;940.6669;;;;
2019/08/28 01:14:59;;;;;;;13.6;9.5;;;;;;;18.76;77.92969;940.6945;;;;
2019/08/28 01:17:27;;;;;;;9.5;8.5;;;;;;;18.75;77.91602;940.6682;;;;
2019/08/28 01:19:57;;;;;;;12.2;9;;;;;;;18.69;78.05664;940.7006;;;;
2019/08/28 01:23:05;;;;;;;13.4;9.1;;;;;;;18.63;78.1748;940.7324;;;;
2019/08/28 01:25:30;;;;;;;12.5;8.9;;;;;;;18.64;78.16504;940.7685;;;;
2019/08/28 01:33:50;;;;;;;12.3;9.4;;;;;;;18.67;78.19434;940.767;;;;
2019/08/28 01:36:46;;;;;;;12.9;9.8;;;;;;;18.81;77.42676;940.817;;;;
2019/08/28 01:38:36;;;;;;;10.6;9.5;;;;;;;18.9;77.48926;940.7883;;;;
2019/08/28 01:43:39;;;;;;;11.5;9.3;;;;;;;19.02;76.55566;940.8256;;;;
2019/08/28 01:46:12;;;;;;;13;9;;;;;;;19;76.7041;940.8145;;;;
2019/08/28 01:48:50;;;;;;;13.2;9.4;;;;;;;19.03;76.32422;940.807;;;;
2019/08/28 01:51:22;;;;;;;11.1;9;;;;;;;19.06;76.2959;940.8429;;;;
2019/08/28 01:54:04;;;;;;;10.7;9;;;;;;;19;76.49414;940.8582;;;;
2019/08/28 01:56:27;;;;;;;11.3;9.1;;;;;;;19.03;76.38281;940.8717;;;;
2019/08/28 01:59:07;;;;;;;12.5;9.1;;;;;;;18.99;76.52637;940.8778;;;;
2019/08/28 02:01:38;;;;;;;11.2;9.2;;;;;;;19.02;76.84473;940.8999;;;;
2019/08/28 02:04:15;;;;;;;12.5;8.9;;;;;;;19.09;76.70801;940.885;;;;
2019/08/28 02:06:54;;;;;;;13.2;9.5;;;;;;;19.15;76.4375;940.9081;;;;
2019/08/28 02:09:17;;;;;;;11.1;9.5;;;;;;;19.22;76.57813;940.9763;;;;
2019/08/28 02:11:42;;;;;;;10.4;9.3;;;;;;;19.19;76.09668;940.8993;;;;
2019/08/28 02:14:08;;;;;;;9.7;8.7;;;;;;;18.79;76.52637;940.8949;;;;
2019/08/28 02:16:40;;;;;;;12.4;9.3;;;;;;;18.53;77.80859;940.8892;;;;
2019/08/28 02:19:08;;;;;;;11.7;9.5;;;;;;;18.49;78.01953;940.9005;;;;
2019/08/28 02:21:40;;;;;;;12.5;9.3;;;;;;;18.54;77.93652;940.9334;;;;
2019/08/28 02:24:09;;;;;;;11;9.2;;;;;;;18.32;78.66504;940.9053;;;;
2019/08/28 02:26:39;;;;;;;12.2;9.2;;;;;;;18.31;78.66309;940.928;;;;
2019/08/28 02:29:06;;;;;;;10;9;;;;;;;18.23;78.96387;940.9727;;;;
2019/08/28 02:31:36;;;;;;;11.6;9;;;;;;;18.34;78.41406;940.8847;;;;
2019/08/28 02:34:18;;;;;;;12.4;9;;;;;;;18.49;78.0459;940.9108;;;;
2019/08/28 02:36:34;;;;;;;13.8;9.1;;;;;;;18.42;78.07813;940.8674;;;;
2019/08/28 02:39:06;;;;;;;14.8;8.8;;;;;;;18.56;77.95215;940.796;;;;
2019/08/28 02:41:39;;;;;;;11.4;9.2;;;;;;;18.6;77.7627;940.7952;;;;
2019/08/28 02:44:12;;;;;;;9.6;8.5;;;;;;;18.41;78.03027;940.8198;;;;
2019/08/28 02:46:49;;;;;;;13.2;8.9;;;;;;;18.24;78.9541;940.7687;;;;
2019/08/28 02:49:15;;;;;;;12.1;8.7;;;;;;;18.54;77.83105;940.8141;;;;
2019/08/28 02:51:40;;;;;;;13.3;8.9;;;;;;;18.67;77.21582;940.8608;;;;
2019/08/28 02:54:15;;;;;;;13.9;10.7;;;;;;;18.43;78.04492;940.853;;;;
2019/08/28 02:56:53;;;;;;;13.7;9.8;;;;;;;18.45;78.13086;940.8067;;;;
2019/08/28 02:59:24;;;;;;;16.8;10.9;;;;;;;18.49;78.19531;940.8044;;;;
2019/08/28 03:01:50;;;;;;;13.6;10.8;;;;;;;18.28;78.94922;940.8156;;;;
2019/08/28 03:04:21;;;;;;;14.8;10.7;;;;;;;18.26;79.08496;940.7692;;;;
2019/08/28 03:06:49;;;;;;;11.7;9.8;;;;;;;18.4;78.81934;940.8499;;;;
2019/08/28 03:09:18;;;;;;;14.8;10.4;;;;;;;18.42;78.75391;940.82;;;;
2019/08/28 03:11:51;;;;;;;14.9;10.2;;;;;;;18.5;78.58105;940.7164;;;;
2019/08/28 03:14:16;;;;;;;11.7;9.2;;;;;;;18.59;78.09668;940.8309;;;;
2019/08/28 03:16:55;;;;;;;13.8;9.6;;;;;;;18.51;78.53613;940.7872;;;;
2019/08/28 03:19:13;;;;;;;15.3;10.2;;;;;;;18.61;77.9834;940.8136;;;;
2019/08/28 03:21:47;;;;;;;12.3;9.9;;;;;;;18.61;77.78613;940.7958;;;;
2019/08/28 03:24:18;;;;;;;13.4;9.6;;;;;;;18.66;77.54004;940.7431;;;;
2019/08/28 03:26:51;;;;;;;11.4;8.3;;;;;;;18.48;78.05469;940.7996;;;;
2019/08/28 03:29:25;;;;;;;10.9;9.2;;;;;;;18.48;78.12402;940.7883;;;;
2019/08/28 03:31:52;;;;;;;13.6;9.1;;;;;;;18.37;78.57129;940.7971;;;;
2019/08/28 03:34:29;;;;;;;13.8;8.7;;;;;;;18.35;78.4043;940.7637;;;;
2019/08/28 03:36:58;;;;;;;11.7;8.9;;;;;;;18.5;78.02246;940.7874;;;;
2019/08/28 03:39:36;;;;;;;10.1;8.6;;;;;;;18.61;77.62305;940.7869;;;;
2019/08/28 03:42:13;;;;;;;9.7;8.7;;;;;;;18.72;76.99219;940.7453;;;;
2019/08/28 03:44:43;;;;;;;10.8;8.4;;;;;;;18.77;77.13867;940.7235;;;;
2019/08/28 03:47:15;;;;;;;9.4;8.4;;;;;;;18.75;76.97266;940.7529;;;;
2019/08/28 03:49:48;;;;;;;10.4;9.2;;;;;;;18.61;77.51855;940.7508;;;;
2019/08/28 03:52:20;;;;;;;10.5;9.4;;;;;;;18.47;78.0625;940.7798;;;;
2019/08/28 03:54:48;;;;;;;12.3;9.4;;;;;;;18.28;78.98438;940.7269;;;;
2019/08/28 03:57:16;;;;;;;10.8;9.1;;;;;;;18.21;79.85449;940.7575;;;;
2019/08/28 03:59:50;;;;;;;12.3;9.4;;;;;;;18.31;79.10352;940.7458;;;;
2019/08/28 04:02:41;;;;;;;10.7;9.4;;;;;;;18.21;79.57715;940.7631;;;;
2019/08/28 04:05:03;;;;;;;11;9.6;;;;;;;18.2;79.62012;940.7811;;;;
2019/08/28 04:07:34;;;;;;;12.2;9.9;;;;;;;18.2;79.7832;940.7875;;;;
2019/08/28 04:10:12;;;;;;;16.3;10.1;;;;;;;18;80.69727;940.817;;;;
2019/08/28 04:12:44;;;;;;;14.1;9.9;;;;;;;18.2;79.80566;940.8239;;;;
2019/08/28 04:15:28;;;;;;;13.5;9.8;;;;;;;18.24;79.46387;940.7856;;;;
2019/08/28 04:18:12;;;;;;;11.2;9.4;;;;;;;18.02;79.79688;940.7645;;;;
2019/08/28 04:22:54;;;;;;;13.2;9.9;;;;;;;18;80.08398;940.7597;;;;
2019/08/28 04:25:27;;;;;;;13.4;10;;;;;;;18.11;79.61328;940.8237;;;;
2019/08/28 04:28:06;;;;;;;13.7;11.3;;;;;;;18.4;78.36523;940.7919;;;;
2019/08/28 04:30:36;;;;;;;14.1;11;;;;;;;18.49;77.84668;940.8915;;;;
2019/08/28 04:33:10;;;;;;;12.8;10.7;;;;;;;18.34;78.40234;940.8976;;;;
2019/08/28 04:35:41;;;;;;;12.1;9.9;;;;;;;18.25;78.50293;940.9249;;;;
2019/08/28 04:38:10;;;;;;;13.6;10.2;;;;;;;18.35;78.37891;940.8564;;;;
2019/08/28 04:40:36;;;;;;;12;10;;;;;;;18.46;78.36328;940.9324;;;;
2019/08/28 04:43:11;;;;;;;12.9;9.7;;;;;;;18.53;78.09863;940.9973;;;;
2019/08/28 04:45:41;;;;;;;14.9;10.3;;;;;;;18.43;78.14941;941.0376;;;;
2019/08/28 04:48:12;;;;;;;19.4;9.9;;;;;;;18.58;77.68848;941.0214;;;;
2019/08/28 04:50:41;;;;;;;15.8;9.9;;;;;;;18.72;77.47949;941.0753;;;;
2019/08/28 04:53:15;;;;;;;13.7;9.8;;;;;;;18.8;77.2041;941.0989;;;;
2019/08/28 04:55:44;;;;;;;13;9.8;;;;;;;18.84;77.26855;941.0419;;;;
2019/08/28 04:58:11;;;;;;;13.2;10;;;;;;;18.87;76.76172;941.093;;;;
2019/08/28 05:01:14;;;;;;;13.1;9.6;;;;;;;18.73;77.29688;941.0653;;;;
2019/08/28 05:03:37;;;;;;;12.3;9.4;;;;;;;18.83;76.91992;941.1171;;;;
2019/08/28 05:06:08;;;;;;;12.3;9.3;;;;;;;18.91;77.67578;941.0577;;;;
2019/08/28 05:08:35;;;;;;;15.4;9.4;;;;;;;19.02;76.6123;941.0574;;;;
2019/08/28 05:11:10;;;;;;;13.5;9.4;;;;;;;19.15;76.35645;941.0253;;;;
2019/08/28 05:13:46;;;;;;;11.4;9.6;;;;;;;19.17;76.16113;941.0549;;;;
2019/08/28 05:16:19;;;;;;;13.2;9.4;;;;;;;19.21;76.79785;941.095;;;;
2019/08/28 05:18:48;;;;;;;14.2;9.3;;;;;;;19.24;75.77832;941.1369;;;;
2019/08/28 05:21:20;;;;;;;11.8;9;;;;;;;19.22;75.60059;941.142;;;;
2019/08/28 05:23:47;;;;;;;14.9;9.5;;;;;;;19.19;75.60742;941.1973;;;;
2019/08/28 05:27:01;;;;;;;13;9.4;;;;;;;19.1;75.94141;941.1731;;;;
2019/08/28 05:29:14;;;;;;;12.2;9.3;;;;;;;19.12;76.35156;941.1663;;;;
2019/08/28 05:32:06;;;;;;;20.2;9.8;;;;;;;19.1;76.18359;941.2006;;;;
2019/08/28 05:34:19;;;;;;;13.6;9.2;;;;;;;19;76.28516;941.2004;;;;
2019/08/28 05:36:52;;;;;;;14.8;9.6;;;;;;;19.05;76.3623;941.1627;;;;
2019/08/28 05:39:26;;;;;;;12.7;9.8;;;;;;;19.23;76.82617;941.2629;;;;
2019/08/28 05:41:56;;;;;;;15.6;9.9;;;;;;;19.44;75.89355;941.3052;;;;
2019/08/28 05:44:23;;;;;;;14.8;8.7;;;;;;;19.39;74.49902;941.2905;;;;
2019/08/28 05:47:13;;;;;;;13.2;9;;;;;;;19.33;74.89453;941.2579;;;;
2019/08/28 05:50:15;;;;;;;11.5;8.7;;;;;;;19.15;76.12305;941.2383;;;;
2019/08/28 05:52:44;;;;;;;12.8;8.4;;;;;;;19.07;75.89941;941.2366;;;;
2019/08/28 05:55:19;;;;;;;13.7;9.1;;;;;;;19.08;76.37891;941.209;;;;
2019/08/28 05:58:28;;;;;;;14.8;8.9;;;;;;;19.17;76.0332;941.1887;;;;
2019/08/28 06:00:55;;;;;;;14.6;9;;;;;;;19.56;74.98242;941.156;;;;
2019/08/28 06:03:25;;;;;;;17.2;8.9;;;;;;;19.85;76.09375;941.1853;;;;
2019/08/28 06:05:56;;;;;;;12.9;8.6;;;;;;;20.15;73.82227;941.1078;;;;
2019/08/28 06:08:32;;;;;;;11.9;8.2;;;;;;;20.29;71.69629;941.1502;;;;
2019/08/28 06:10:58;;;;;;;17.4;8.9;;;;;;;20.54;71.5625;941.1423;;;;
2019/08/28 06:13:23;;;;;;;12.6;8.8;;;;;;;20.73;70.13184;941.1031;;;;
2019/08/28 06:15:55;;;;;;;15.4;8.8;;;;;;;20.6;70.54395;941.1708;;;;
2019/08/28 06:18:19;;;;;;;30.5;12.4;;;;;;;20.6;70.95313;941.1602;;;;
2019/08/28 06:20:51;;;;;;;74.3;12.1;;;;;;;20.79;70.45801;941.1404;;;;
2019/08/28 06:23:17;;;;;;;15.2;8.3;;;;;;;20.98;68.51172;941.139;;;;
2019/08/28 06:25:53;;;;;;;13.5;8.4;;;;;;;21.21;68.76855;941.1058;;;;
2019/08/28 06:28:28;;;;;;;12.3;8.2;;;;;;;21.51;66.70801;941.1584;;;;
2019/08/28 06:31:09;;;;;;;13.5;7.6;;;;;;;21.93;65.68066;941.1883;;;;
2019/08/28 06:33:41;;;;;;;10.2;7.4;;;;;;;22.11;64.67773;941.1572;;;;
2019/08/28 06:36:30;;;;;;;11.3;7.6;;;;;;;22.07;65.01172;941.1342;;;;
2019/08/28 06:38:55;;;;;;;9.5;7.1;;;;;;;22.17;65.17871;941.2399;;;;
2019/08/28 06:44:03;;;;;;;15.1;8;;;;;;;21.95;65.59082;941.2101;;;;
2019/08/28 06:46:27;;;;;;;20.7;9.9;;;;;;;21.88;65.43945;941.2245;;;;
2019/08/28 06:49:03;;;;;;;22.5;9.6;;;;;;;22.15;67.16797;941.1781;;;;
2019/08/28 06:54:48;;;;;;;11.7;7.9;;;;;;;22.43;63.53809;941.2185;;;;
2019/08/28 06:57:44;;;;;;;9.3;7.7;;;;;;;22.43;63.02344;941.1803;;;;
2019/08/28 07:00:14;;;;;;;12.7;8.2;;;;;;;22.24;63.6416;941.1674;;;;
2019/08/28 07:03:20;;;;;;;11.4;7.4;;;;;;;22.13;63.75293;941.1794;;;;
2019/08/28 07:05:44;;;;;;;10.7;7.9;;;;;;;22.09;64.50977;941.1311;;;;
2019/08/28 07:08:18;;;;;;;11.6;8.1;;;;;;;22.16;64.5791;941.1355;;;;
2019/08/28 07:10:47;;;;;;;8.2;7;;;;;;;22.43;63.96191;941.1154;;;;
2019/08/28 07:15:48;;;;;;;14.1;7.6;;;;;;;22.34;64.23047;941.1789;;;;
2019/08/28 07:19:27;;;;;;;10.5;7.7;;;;;;;22.97;62.46484;941.2148;;;;
2019/08/28 07:22:15;;;;;;;11.2;7.8;;;;;;;23.7;59.88477;941.1964;;;;
2019/08/28 07:24:42;;;;;;;13;7.2;;;;;;;24.54;56.64941;941.0516;;;;
2019/08/28 07:27:17;;;;;;;12.1;7.5;;;;;;;25.37;55.07813;940.923;;;;
2019/08/28 07:29:48;;;;;;;8.6;6.9;;;;;;;25.91;52.33105;940.9709;;;;
2019/08/28 07:32:22;;;;;;;11.1;6.7;;;;;;;26.31;54.51953;940.921;;;;
2019/08/28 07:34:53;;;;;;;10;6.5;;;;;;;27.05;51.57422;940.8845;;;;
2019/08/28 07:37:31;;;;;;;11.3;6.6;;;;;;;27.3;49.53906;940.8851;;;;
2019/08/28 07:40:07;;;;;;;8.7;6.4;;;;;;;27.22;49.68555;940.8624;;;;
2019/08/28 07:42:50;;;;;;;15.5;6.4;;;;;;;27.7;48.94336;940.8386;;;;
2019/08/28 07:45:26;;;;;;;8.6;6.5;;;;;;;26.97;49.29004;940.7968;;;;
2019/08/28 07:48:04;;;;;;;9.3;6.6;;;;;;;27.38;50.26074;940.7537;;;;
2019/08/28 07:50:34;;;;;;;8.7;6.1;;;;;;;28.19;48.88965;940.7316;;;;
2019/08/28 07:53:08;;;;;;;9;5.7;;;;;;;28.86;48.52148;940.7886;;;;
2019/08/28 07:55:32;;;;;;;11.2;5.5;;;;;;;29.46;46.84668;940.7665;;;;
2019/08/28 07:57:59;;;;;;;8;5.7;;;;;;;29.49;42.61816;940.7787;;;;
2019/08/28 08:00:26;;;;;;;8;5.9;;;;;;;28.98;43.37988;940.8306;;;;
2019/08/28 08:02:56;;;;;;;8.3;5.8;;;;;;;29.2;44.25977;940.8333;;;;
2019/08/28 08:05:22;;;;;;;8.5;5.6;;;;;;;29.7;43.71094;940.7769;;;;
2019/08/28 08:07:54;;;;;;;6.3;5.4;;;;;;;29.81;41.64746;940.7592;;;;
2019/08/28 08:10:25;;;;;;;7.4;5.6;;;;;;;30.03;42.24023;940.7403;;;;
2019/08/28 08:12:56;;;;;;;7.3;5.3;;;;;;;30.22;41.46973;940.7196;;;;
2019/08/28 08:15:20;;;;;;;6.2;5;;;;;;;30.64;40.68359;940.6566;;;;
2019/08/28 08:18:01;;;;;;;8.8;5.4;;;;;;;30.68;40.87891;940.6197;;;;
2019/08/28 08:20:19;;;;;;;8;5.9;;;;;;;30.71;41.76563;940.6519;;;;
2019/08/28 08:22:50;;;;;;;6.1;5.4;;;;;;;30.47;40.2627;940.6616;;;;
2019/08/28 08:25:20;;;;;;;7.9;5.2;;;;;;;30.38;41.2334;940.6461;;;;
2019/08/28 08:27:47;;;;;;;5.6;5.1;;;;;;;30.69;39.23047;940.6167;;;;
2019/08/28 08:30:33;;;;;;;6.8;5.2;;;;;;;30.96;39.74414;940.5637;;;;
2019/08/28 08:33:16;;;;;;;6.5;5.4;;;;;;;30.58;40.20117;940.5803;;;;
2019/08/28 08:35:33;;;;;;;7.6;5.7;;;;;;;30.49;42.33105;940.6415;;;;
2019/08/28 08:38:18;;;;;;;9;5.7;;;;;;;30.98;41.36133;940.6259;;;;
2019/08/28 08:43:08;;;;;;;7.3;5.6;;;;;;;32.31;38.07617;940.5386;;;;
2019/08/28 08:45:28;;;;;;;5.4;4.9;;;;;;;32.86;40.08008;940.4861;;;;
2019/08/28 08:48:24;;;;;;;5.7;5;;;;;;;33.21;38.12695;940.4726;;;;
2019/08/28 08:50:48;;;;;;;6.9;4.8;;;;;;;33.39;39.18848;940.5119;;;;
2019/08/28 08:53:16;;;;;;;8.4;5.2;;;;;;;33.48;37.50098;940.5471;;;;
2019/08/28 08:55:57;;;;;;;5.4;4.9;;;;;;;33.73;34.9707;940.5469;;;;
2019/08/28 08:58:30;;;;;;;6.5;5;;;;;;;33.51;36.72168;940.4941;;;;
2019/08/28 09:01:05;;;;;;;10.7;4.9;;;;;;;33.57;36.82324;940.4894;;;;
2019/08/28 09:03:30;;;;;;;7.7;5.2;;;;;;;33.43;37.90527;940.4278;;;;
2019/08/28 09:05:56;;;;;;;8.6;5.2;;;;;;;33.21;38.22363;940.4489;;;;
2019/08/28 09:08:28;;;;;;;5.5;5;;;;;;;32.75;37.70508;940.4548;;;;
2019/08/28 09:11:15;;;;;;;6.1;5.1;;;;;;;32.37;36.74902;940.3775;;;;
2019/08/28 09:13:50;;;;;;;5.6;5.1;;;;;;;32.51;39.36523;940.3675;;;;
2019/08/28 09:16:12;;;;;;;6.1;5.5;;;;;;;32.04;40.53418;940.3552;;;;
2019/08/28 09:18:42;;;;;;;6.3;5.4;;;;;;;31.28;42.11816;940.2913;;;;
2019/08/28 09:21:13;;;;;;;9.6;5.6;;;;;;;30.99;40.5957;940.284;;;;
2019/08/28 09:24:33;;;;;;;8.9;5.8;;;;;;;30.72;41.73047;940.2441;;;;
2019/08/28 09:26:48;;;;;;;9.5;5.8;;;;;;;30.51;44.33984;940.3016;;;;
2019/08/28 09:29:31;;;;;;;7;5.4;;;;;;;30.03;44.68652;940.2668;;;;
2019/08/28 09:31:53;;;;;;;6.3;5.5;;;;;;;30.08;47.5918;940.2659;;;;
2019/08/28 09:34:27;;;;;;;10.2;6;;;;;;;30.14;47.95508;940.2897;;;;
2019/08/28 09:39:29;;;;;;;7.3;6;;;;;;;29.71;45.33496;940.2161;;;;
2019/08/28 09:42:05;;;;;;;6.7;5.6;;;;;;;29.25;48.77832;940.1542;;;;
2019/08/28 09:44:39;;;;;;;6.7;6;;;;;;;29.01;51.19238;940.2277;;;;
2019/08/28 09:47:00;;;;;;;7.1;5.7;;;;;;;29.15;44.93262;940.2122;;;;
2019/08/28 09:49:32;;;;;;;8.7;5.8;;;;;;;29.57;45.09375;940.2173;;;;
2019/08/28 09:52:08;;;;;;;6.4;5.8;;;;;;;30.12;44.85059;940.196;;;;
2019/08/28 09:54:40;;;;;;;6.6;5.9;;;;;;;30.23;47.46387;940.1973;;;;
2019/08/28 09:57:13;;;;;;;7;5.7;;;;;;;30.15;44.19629;940.1658;;;;
2019/08/28 09:59:44;;;;;;;8.9;5.6;;;;;;;29.85;47.51953;940.1017;;;;
2019/08/28 10:02:16;;;;;;;8.7;5.9;;;;;;;29.36;47.37207;940.0923;;;;
2019/08/28 10:04:43;;;;;;;9.1;5.8;;;;;;;29.15;46.67188;940.0481;;;;
2019/08/28 10:07:24;;;;;;;7.2;5.8;;;;;;;29.18;45.62695;940.0322;;;;
2019/08/28 10:09:55;;;;;;;8.3;5.8;;;;;;;29.32;46.95215;939.9701;;;;
2019/08/28 10:12:20;;;;;;;7.6;5.6;;;;;;;29.34;45.36816;939.9741;;;;
2019/08/28 10:14:48;;;;;;;7.1;5.6;;;;;;;29.41;48.4375;939.9244;;;;
2019/08/28 10:17:17;;;;;;;8.1;5.7;;;;;;;29.92;45.33203;939.8998;;;;
2019/08/28 10:19:49;;;;;;;6.8;5.8;;;;;;;29.73;44.6084;939.8303;;;;
2019/08/28 10:22:20;;;;;;;5.9;5.3;;;;;;;30.05;45.24902;939.8486;;;;
2019/08/28 10:24:55;;;;;;;9.4;5.8;;;;;;;30.73;43.81152;939.8405;;;;
2019/08/28 10:27:50;;;;;;;8.9;5.6;;;;;;;30.58;42.57813;939.8783;;;;
2019/08/28 10:30:20;;;;;;;7.4;5.4;;;;;;;30.36;44.30078;939.8519;;;;
2019/08/28 10:32:55;;;;;;;6.1;5.5;;;;;;;30.48;46.67773;939.8147;;;;
2019/08/28 10:35:27;;;;;;;8;5.9;;;;;;;30.54;45.84766;939.7734;;;;
2019/08/28 10:38:05;;;;;;;7;5.6;;;;;;;30.53;44.63965;939.7889;;;;
2019/08/28 10:40:40;;;;;;;8.6;5.9;;;;;;;30.47;45.48242;939.7689;;;;
2019/08/28 10:43:15;;;;;;;6.6;5.6;;;;;;;30.24;46.58105;939.7856;;;;
2019/08/28 10:45:42;;;;;;;6;5.4;;;;;;;30.11;45.42285;939.7285;;;;
2019/08/28 10:48:09;;;;;;;6.9;5.9;;;;;;;30.27;44.9375;939.7408;;;;
2019/08/28 10:50:43;;;;;;;6.5;5.4;;;;;;;30.67;44.21191;939.7531;;;;
2019/08/28 10:53:07;;;;;;;7.7;5.5;;;;;;;31.03;43.9248;939.7689;;;;
2019/08/28 10:55:38;;;;;;;7.3;5.5;;;;;;;31.52;43.99512;939.8013;;;;
2019/08/28 10:58:23;;;;;;;7.7;5.1;;;;;;;32;40.1709;939.7748;;;;
2019/08/28 11:01:01;;;;;;;7.4;5.3;;;;;;;32.78;39.05176;939.82;;;;
2019/08/28 11:03:26;;;;;;;6;5.4;;;;;;;33.11;38.22656;939.7919;;;;
2019/08/28 11:06:16;;;;;;;6.7;5.3;;;;;;;33.58;37.17188;939.7319;;;;
2019/08/28 11:08:32;;;;;;;8;5.5;;;;;;;33.62;38.70215;939.7528;;;;
2019/08/28 11:11:00;;;;;;;9.9;5.8;;;;;;;33.6;39.19434;939.726;;;;
2019/08/28 11:16:13;;;;;;;8.6;5.6;;;;;;;33.77;39.37695;939.7559;;;;
2019/08/28 11:18:35;;;;;;;7.9;5.2;;;;;;;33.77;38.55957;939.7807;;;;
2019/08/28 11:21:01;;;;;;;5.8;5.2;;;;;;;33.84;37.4707;939.791;;;;
2019/08/28 11:23:31;;;;;;;6.5;5.2;;;;;;;34.13;37.73438;939.765;;;;
2019/08/28 11:26:03;;;;;;;5.9;5.2;;;;;;;34.24;37.99707;939.7275;;;;
2019/08/28 11:28:38;;;;;;;6.8;5.2;;;;;;;34.07;38.37988;939.6989;;;;
2019/08/28 11:31:12;;;;;;;8.4;5.6;;;;;;;34;37.71191;939.6708;;;;
2019/08/28 11:33:45;;;;;;;5.5;5;;;;;;;34.05;38.84766;939.707;;;;
2019/08/28 11:36:26;;;;;;;6.8;5.3;;;;;;;33.66;37.61133;939.6431;;;;
2019/08/28 11:39:22;;;;;;;7.2;5.3;;;;;;;33.29;39.54004;939.6117;;;;
2019/08/28 11:41:59;;;;;;;6.6;5.4;;;;;;;32.72;40.27051;939.5698;;;;
2019/08/28 11:44:25;;;;;;;9.1;5.5;;;;;;;32.61;41.18457;939.5614;;;;
2019/08/28 11:47:00;;;;;;;6.8;5.3;;;;;;;32.31;41.3252;939.5553;;;;
2019/08/28 11:50:15;;;;;;;12.9;5.8;;;;;;;32.03;42.45117;939.5317;;;;
2019/08/28 11:52:18;;;;;;;7.1;5.3;;;;;;;31.9;42.70215;939.5165;;;;
2019/08/28 11:55:13;;;;;;;7.8;5.5;;;;;;;31.68;43.55566;939.4331;;;;
2019/08/28 11:57:22;;;;;;;7.9;6;;;;;;;31.71;44.10938;939.4622;;;;
2019/08/28 11:59:52;;;;;;;10.8;5.8;;;;;;;31.67;43.05176;939.4025;;;;
2019/08/28 12:02:18;;;;;;;6.1;5.5;;;;;;;31.68;41.92676;939.4222;;;;
2019/08/28 12:04:48;;;;;;;6.2;5.6;;;;;;;31.93;42.29785;939.4105;;;;
2019/08/28 12:07:23;;;;;;;7.8;5.1;;;;;;;31.96;41.00684;939.4182;;;;
2019/08/28 12:09:49;;;;;;;7.4;5.7;;;;;;;32.19;41.49512;939.3557;;;;
2019/08/28 12:12:26;;;;;;;7.2;5.4;;;;;;;32.13;42.04102;939.3706;;;;
2019/08/28 12:14:52;;;;;;;6.4;5.4;;;;;;;32.19;42.32227;939.3381;;;;
2019/08/28 12:17:24;;;;;;;9.5;5.6;;;;;;;32.33;42.85156;939.3253;;;;
2019/08/28 12:19:49;;;;;;;7.4;5.2;;;;;;;32.37;42.44629;939.2976;;;;
2019/08/28 12:22:22;;;;;;;6.1;5.1;;;;;;;32.27;40.73438;939.2767;;;;
2019/08/28 12:24:55;;;;;;;8.1;5.4;;;;;;;31.81;40.9209;939.2714;;;;
2019/08/28 12:27:29;;;;;;;7.8;5.1;;;;;;;31.54;41.07617;939.32;;;;
2019/08/28 12:30:03;;;;;;;6.8;5.4;;;;;;;31.35;39.68262;939.3059;;;;
2019/08/28 12:32:44;;;;;;;10.5;5.8;;;;;;;31.29;41.65234;939.2661;;;;
2019/08/28 12:35:05;;;;;;;8.1;5.6;;;;;;;31.32;42.07324;939.2057;;;;
2019/08/28 12:37:30;;;;;;;67.3;9;;;;;;;31.08;42.50586;939.1833;;;;
2019/08/28 12:40:02;;;;;;;10.1;5.6;;;;;;;30.74;43.39453;939.1136;;;;
2019/08/28 12:42:35;;;;;;;9.5;5.8;;;;;;;30.78;44.52246;939.1529;;;;
2019/08/28 12:45:13;;;;;;;7.9;5.8;;;;;;;30.84;43.37988;939.0701;;;;
2019/08/28 12:47:28;;;;;;;7;5.6;;;;;;;30.68;42.82715;939.0868;;;;
2019/08/28 12:50:05;;;;;;;7.4;5.7;;;;;;;30.56;43.31641;938.9997;;;;
2019/08/28 12:52:37;;;;;;;6.3;5.6;;;;;;;30.48;44.56348;938.9763;;;;
2019/08/28 12:55:04;;;;;;;6.3;5.6;;;;;;;30.36;44.06152;938.8937;;;;
2019/08/28 12:57:42;;;;;;;7.9;5.6;;;;;;;30.56;46.44727;938.8431;;;;
2019/08/28 13:00:22;;;;;;;7.5;5.6;;;;;;;30.76;44.81836;938.8017;;;;
2019/08/28 13:02:46;;;;;;;7.9;5.9;;;;;;;31.05;43.98535;938.8655;;;;
2019/08/28 13:05:22;;;;;;;8.1;5.3;;;;;;;31.39;41.60156;938.7816;;;;
2019/08/28 13:07:49;;;;;;;8.1;5.5;;;;;;;31.54;42.83691;938.7762;;;;
2019/08/28 13:10:24;;;;;;;6;5.4;;;;;;;31.43;41.96289;938.7372;;;;
2019/08/28 13:13:12;;;;;;;9.1;5.7;;;;;;;31.04;43.20801;938.778;;;;
2019/08/28 13:15:41;;;;;;;9.3;5.5;;;;;;;30.81;41.51172;938.7561;;;;
2019/08/28 13:18:15;;;;;;;9.2;5.6;;;;;;;30.67;42.50391;938.726;;;;
2019/08/28 13:20:48;;;;;;;7.4;5.4;;;;;;;30.57;44.5127;938.6916;;;;
2019/08/28 13:23:12;;;;;;;9.5;6.1;;;;;;;30.54;45.28711;938.6627;;;;
2019/08/28 13:26:17;;;;;;;12.7;5.7;;;;;;;30.47;44.87305;938.6367;;;;
2019/08/28 13:28:47;;;;;;;9.5;5.7;;;;;;;30.3;43.65039;938.5658;;;;
2019/08/28 13:31:12;;;;;;;8.5;5.6;;;;;;;30.25;42.90527;938.611;;;;
2019/08/28 13:33:42;;;;;;;7.7;5.1;;;;;;;30.38;42.65527;938.5081;;;;
2019/08/28 13:36:08;;;;;;;6.8;5.2;;;;;;;30.53;41.65332;938.5553;;;;
2019/08/28 13:38:40;;;;;;;7;5.4;;;;;;;30.47;41.73242;938.537;;;;
2019/08/28 13:41:13;;;;;;;5.5;4.9;;;;;;;30.35;42.54492;938.5134;;;;
2019/08/28 13:43:48;;;;;;;7;5.4;;;;;;;30.33;43.64063;938.5325;;;;
2019/08/28 13:46:19;;;;;;;6.6;5.7;;;;;;;30.3;43.56641;938.4892;;;;
2019/08/28 13:48:52;;;;;;;8.2;5.6;;;;;;;30.22;43.57129;938.4448;;;;
2019/08/28 13:51:22;;;;;;;7.7;5.5;;;;;;;30.24;45.16016;938.49;;;;
2019/08/28 13:53:52;;;;;;;7.6;6.1;;;;;;;29.7;45.6084;938.455;;;;
2019/08/28 13:56:26;;;;;;;7.3;5.7;;;;;;;29.74;44.93164;938.5066;;;;
2019/08/28 13:58:56;;;;;;;6.8;6.1;;;;;;;29.46;46.16699;938.4816;;;;
2019/08/28 14:01:31;;;;;;;9.5;6.1;;;;;;;29.24;45.93066;938.4426;;;;
2019/08/28 14:03:58;;;;;;;9.6;6.1;;;;;;;29.21;47.04785;938.4407;;;;
2019/08/28 14:06:29;;;;;;;6.2;5.6;;;;;;;29.54;45.88867;938.4317;;;;
2019/08/28 14:08:57;;;;;;;7.2;5.8;;;;;;;29.57;46.09473;938.3851;;;;
2019/08/28 14:11:27;;;;;;;8.3;6.1;;;;;;;29.7;46.19141;938.3742;;;;
2019/08/28 14:14:06;;;;;;;7.5;6;;;;;;;29.33;46.41699;938.3801;;;;
2019/08/28 14:19:08;;;;;;;7.5;5.9;;;;;;;29.8;45.71289;938.416;;;;
2019/08/28 14:21:53;;;;;;;9.5;6.1;;;;;;;29.54;45.38867;938.3641;;;;
2019/08/28 14:24:20;;;;;;;9;6.1;;;;;;;29.53;45.66211;938.3782;;;;
2019/08/28 14:26:43;;;;;;;7.3;5.6;;;;;;;29.45;45.40234;938.3716;;;;
2019/08/28 14:29:09;;;;;;;8.7;6.1;;;;;;;29.45;45.57031;938.4216;;;;
2019/08/28 14:32:14;;;;;;;6.9;6.2;;;;;;;29.16;45.99316;938.3861;;;;
2019/08/28 14:37:12;;;;;;;8.2;5.9;;;;;;;29.06;45.95996;938.3427;;;;
2019/08/28 14:39:46;;;;;;;6.2;5.6;;;;;;;28.95;47.16211;938.3362;;;;
2019/08/28 14:42:19;;;;;;;6.9;5.9;;;;;;;28.69;47.36133;938.4188;;;;
2019/08/28 14:44:49;;;;;;;8.7;6.6;;;;;;;28.71;47.76855;938.3621;;;;
2019/08/28 14:47:15;;;;;;;9.5;6.4;;;;;;;28.99;48.47656;938.2559;;;;
2019/08/28 14:49:47;;;;;;;7.1;6;;;;;;;29.19;48.87891;938.2363;;;;
2019/08/28 14:52:16;;;;;;;7;6.2;;;;;;;29.31;49.1416;938.2291;;;;
2019/08/28 14:54:44;;;;;;;8.9;6.2;;;;;;;29.27;47.17188;938.2327;;;;
2019/08/28 14:57:17;;;;;;;7.7;6.4;;;;;;;29.03;47.00488;938.2609;;;;
2019/08/28 14:59:49;;;;;;;7;6.3;;;;;;;28.86;47.42773;938.2999;;;;
2019/08/28 15:02:21;;;;;;;9.2;6.7;;;;;;;28.9;48.66895;938.2612;;;;
2019/08/28 15:04:49;;;;;;;7.4;6.5;;;;;;;28.53;48.26074;938.2715;;;;
2019/08/28 15:07:16;;;;;;;7.3;6.6;;;;;;;28.33;49.04785;938.2124;;;;
2019/08/28 15:09:47;;;;;;;8.8;6.2;;;;;;;28.15;50.38281;938.228;;;;
2019/08/28 15:12:34;;;;;;;8.6;6.6;;;;;;;28.04;49.82324;938.2797;;;;
2019/08/28 15:15:06;;;;;;;8.3;6.9;;;;;;;27.88;50.20996;938.3373;;;;
2019/08/28 15:17:30;;;;;;;10.3;6.9;;;;;;;27.94;50.28809;938.2949;;;;
2019/08/28 15:20:20;;;;;;;7.3;6.6;;;;;;;27.99;50.64941;938.3682;;;;
2019/08/28 15:22:45;;;;;;;6.9;6.2;;;;;;;27.96;50.91992;938.3959;;;;
2019/08/28 15:25:09;;;;;;;8.3;6.4;;;;;;;28.02;50.92578;938.3894;;;;